sensor_id;sensor_type;location;lat;lon;timestamp;pressure;altitude;pressure_sealevel;temperature;humidity
67397;BME280;57728;50.448;18.824;2022-12-07T00:01:23;97366.88;;;2.12;79.40
67397;BME280;57728;50.448;18.824;2022-12-07T00:03:26;97369.19;;;2.15;79.28
67397;BME280;57728;50.448;18.824;2022-12-07T00:05:29;97370.03;;;2.15;79.06
67397;BME280;57728;50.448;18.824;2022-12-07T00:07:31;97359.28;;;2.15;79.14
67397;BME280;57728;50.448;18.824;2022-12-07T00:09:32;97367.53;;;2.14;79.11
67397;BME280;57728;50.448;18.824;2022-12-07T00:11:34;97360.03;;;2.09;79.13
67397;BME280;57728;50.448;18.824;2022-12-07T00:13:36;97360.69;;;2.11;79.00
67397;BME280;57728;50.448;18.824;2022-12-07T00:15:38;97367.75;;;2.12;78.96
67397;BME280;57728;50.448;18.824;2022-12-07T00:17:40;97359.63;;;2.05;79.03
67397;BME280;57728;50.448;18.824;2022-12-07T00:19:42;97368.50;;;2.06;79.17
67397;BME280;57728;50.448;18.824;2022-12-07T00:21:43;97372.03;;;2.06;79.09
67397;BME280;57728;50.448;18.824;2022-12-07T00:23:48;97360.44;;;2.06;79.25
67397;BME280;57728;50.448;18.824;2022-12-07T00:25:50;97362.31;;;2.05;79.23
67397;BME280;57728;50.448;18.824;2022-12-07T00:27:53;97369.34;;;2.06;79.32
67397;BME280;57728;50.448;18.824;2022-12-07T00:29:57;97360.63;;;2.04;79.31
67397;BME280;57728;50.448;18.824;2022-12-07T00:31:58;97358.97;;;2.03;79.35
67397;BME280;57728;50.448;18.824;2022-12-07T00:34:00;97361.91;;;2.09;79.43
67397;BME280;57728;50.448;18.824;2022-12-07T00:36:06;97366.25;;;2.10;79.38
67397;BME280;57728;50.448;18.824;2022-12-07T00:38:10;97361.50;;;2.12;79.06
67397;BME280;57728;50.448;18.824;2022-12-07T00:40:11;97363.38;;;2.11;79.23
67397;BME280;57728;50.448;18.824;2022-12-07T00:42:14;97367.53;;;2.14;79.26
67397;BME280;57728;50.448;18.824;2022-12-07T00:44:15;97354.06;;;2.07;79.11
67397;BME280;57728;50.448;18.824;2022-12-07T00:46:17;97352.63;;;2.11;79.13
67397;BME280;57728;50.448;18.824;2022-12-07T00:48:21;97346.47;;;2.17;79.33
67397;BME280;57728;50.448;18.824;2022-12-07T00:50:23;97348.97;;;2.19;79.28
67397;BME280;57728;50.448;18.824;2022-12-07T00:52:24;97349.44;;;2.22;79.20
67397;BME280;57728;50.448;18.824;2022-12-07T00:54:26;97346.34;;;2.26;79.20
67397;BME280;57728;50.448;18.824;2022-12-07T00:56:28;97356.06;;;2.27;78.79
67397;BME280;57728;50.448;18.824;2022-12-07T00:58:29;97347.16;;;2.26;78.78
67397;BME280;57728;50.448;18.824;2022-12-07T01:00:32;97357.09;;;2.26;78.85
67397;BME280;57728;50.448;18.824;2022-12-07T01:02:35;97342.38;;;2.21;78.86
67397;BME280;57728;50.448;18.824;2022-12-07T01:04:36;97345.34;;;2.27;78.85
67397;BME280;57728;50.448;18.824;2022-12-07T01:06:38;97346.53;;;2.24;78.68
67397;BME280;57728;50.448;18.824;2022-12-07T01:08:39;97342.78;;;2.18;78.47
67397;BME280;57728;50.448;18.824;2022-12-07T01:10:41;97339.63;;;2.15;78.69
67397;BME280;57728;50.448;18.824;2022-12-07T01:12:43;97342.31;;;2.15;79.01
67397;BME280;57728;50.448;18.824;2022-12-07T01:14:44;97339.22;;;2.11;78.73
67397;BME280;57728;50.448;18.824;2022-12-07T01:16:45;97336.72;;;2.10;78.95
67397;BME280;57728;50.448;18.824;2022-12-07T01:18:49;97334.44;;;2.06;78.91
67397;BME280;57728;50.448;18.824;2022-12-07T01:21:00;97333.19;;;2.09;79.02
67397;BME280;57728;50.448;18.824;2022-12-07T01:23:03;97339.00;;;2.13;79.25
67397;BME280;57728;50.448;18.824;2022-12-07T01:25:06;97334.03;;;2.10;79.06
67397;BME280;57728;50.448;18.824;2022-12-07T01:27:09;97329.94;;;2.14;78.97
67397;BME280;57728;50.448;18.824;2022-12-07T01:29:10;97328.28;;;2.13;78.94
67397;BME280;57728;50.448;18.824;2022-12-07T01:31:15;97334.91;;;2.17;79.02
67397;BME280;57728;50.448;18.824;2022-12-07T01:33:18;97332.63;;;2.14;78.90
67397;BME280;57728;50.448;18.824;2022-12-07T01:35:20;97332.44;;;2.15;79.10
67397;BME280;57728;50.448;18.824;2022-12-07T01:37:22;97330.75;;;2.14;78.89
67397;BME280;57728;50.448;18.824;2022-12-07T01:39:23;97317.28;;;2.08;79.12
67397;BME280;57728;50.448;18.824;2022-12-07T01:41:28;97331.22;;;2.18;79.13
67397;BME280;57728;50.448;18.824;2022-12-07T01:43:33;97331.22;;;2.18;78.95
67397;BME280;57728;50.448;18.824;2022-12-07T01:45:40;97327.88;;;2.16;79.03
67397;BME280;57728;50.448;18.824;2022-12-07T01:47:54;97327.81;;;2.09;78.93
67397;BME280;57728;50.448;18.824;2022-12-07T01:49:59;97335.50;;;2.12;79.04
67397;BME280;57728;50.448;18.824;2022-12-07T01:52:06;97331.16;;;2.11;79.14
67397;BME280;57728;50.448;18.824;2022-12-07T01:54:13;97333.00;;;2.11;79.08
67397;BME280;57728;50.448;18.824;2022-12-07T01:56:22;97330.16;;;2.12;79.03
67397;BME280;57728;50.448;18.824;2022-12-07T01:58:28;97328.28;;;2.13;79.13
67397;BME280;57728;50.448;18.824;2022-12-07T02:00:30;97330.97;;;2.13;79.09
67397;BME280;57728;50.448;18.824;2022-12-07T02:02:40;97328.06;;;2.14;78.98
67397;BME280;57728;50.448;18.824;2022-12-07T02:04:55;97325.78;;;2.11;79.10
67397;BME280;57728;50.448;18.824;2022-12-07T02:06:59;97330.75;;;2.14;79.20
67397;BME280;57728;50.448;18.824;2022-12-07T02:09:02;97328.06;;;2.14;79.10
67397;BME280;57728;50.448;18.824;2022-12-07T02:11:06;97327.88;;;2.16;79.12
67397;BME280;57728;50.448;18.824;2022-12-07T02:13:14;97326.66;;;2.18;79.17
67397;BME280;57728;50.448;18.824;2022-12-07T02:15:25;97326.28;;;2.21;79.25
67397;BME280;57728;50.448;18.824;2022-12-07T02:17:58;97326.94;;;2.23;79.12
67397;BME280;57728;50.448;18.824;2022-12-07T02:30:17;97316.84;;;2.32;78.93
67397;BME280;57728;50.448;18.824;2022-12-07T02:40:25;97308.81;;;2.32;78.86
67397;BME280;57728;50.448;18.824;2022-12-07T02:42:36;97312.31;;;2.33;78.87
67397;BME280;57728;50.448;18.824;2022-12-07T02:44:46;97309.00;;;2.31;78.79
67397;BME280;57728;50.448;18.824;2022-12-07T02:46:59;97306.75;;;2.34;79.04
67397;BME280;57728;50.448;18.824;2022-12-07T02:49:05;97316.06;;;2.38;78.78
67397;BME280;57728;50.448;18.824;2022-12-07T02:51:10;97304.50;;;2.38;78.72
67397;BME280;57728;50.448;18.824;2022-12-07T02:55:41;97301.16;;;2.36;78.55
67397;BME280;57728;50.448;18.824;2022-12-07T03:00:15;97298.88;;;2.33;78.84
67397;BME280;57728;50.448;18.824;2022-12-07T03:10:21;97304.03;;;2.28;78.80
67397;BME280;57728;50.448;18.824;2022-12-07T03:12:57;97292.22;;;2.29;78.93
67397;BME280;57728;50.448;18.824;2022-12-07T03:17:50;97294.91;;;2.29;78.92
67397;BME280;57728;50.448;18.824;2022-12-07T03:19:58;97270.47;;;2.17;79.02
67397;BME280;57728;50.448;18.824;2022-12-07T03:22:09;97290.75;;;2.26;78.91
67397;BME280;57728;50.448;18.824;2022-12-07T03:24:19;97284.31;;;2.20;78.82
67397;BME280;57728;50.448;18.824;2022-12-07T03:26:32;97289.94;;;2.26;78.90
67397;BME280;57728;50.448;18.824;2022-12-07T03:28:45;97286.84;;;2.29;79.05
67397;BME280;57728;50.448;18.824;2022-12-07T03:31:12;97283.97;;;2.30;79.07
67397;BME280;57728;50.448;18.824;2022-12-07T03:33:29;97290.00;;;2.32;79.08
67397;BME280;57728;50.448;18.824;2022-12-07T03:38:45;97278.44;;;2.38;79.02
67397;BME280;57728;50.448;18.824;2022-12-07T03:42:57;97276.63;;;2.39;79.08
67397;BME280;57728;50.448;18.824;2022-12-07T03:45:04;97274.53;;;2.41;79.08
67397;BME280;57728;50.448;18.824;2022-12-07T03:49:52;97277.00;;;2.36;78.85
67397;BME280;57728;50.448;18.824;2022-12-07T03:52:22;97280.06;;;2.33;78.88
67397;BME280;57728;50.448;18.824;2022-12-07T03:54:47;97276.75;;;2.31;79.07
67397;BME280;57728;50.448;18.824;2022-12-07T03:56:59;97274.66;;;2.26;78.97
67397;BME280;57728;50.448;18.824;2022-12-07T03:59:04;97280.91;;;2.33;79.23
67397;BME280;57728;50.448;18.824;2022-12-07T04:01:06;97279.47;;;2.37;79.29
67397;BME280;57728;50.448;18.824;2022-12-07T04:03:08;97268.09;;;2.35;79.33
67397;BME280;57728;50.448;18.824;2022-12-07T04:05:10;97268.97;;;2.43;79.53
67397;BME280;57728;50.448;18.824;2022-12-07T04:07:13;97266.53;;;2.48;79.19
67397;BME280;57728;50.448;18.824;2022-12-07T04:09:15;97274.81;;;2.53;79.25
67397;BME280;57728;50.448;18.824;2022-12-07T04:11:16;97273.59;;;2.55;78.73
67397;BME280;57728;50.448;18.824;2022-12-07T04:13:18;97267.16;;;2.50;78.50
67397;BME280;57728;50.448;18.824;2022-12-07T04:15:19;97274.41;;;2.49;78.30
67397;BME280;57728;50.448;18.824;2022-12-07T04:17:20;97268.56;;;2.46;78.42
67397;BME280;57728;50.448;18.824;2022-12-07T04:19:25;97274.34;;;2.43;78.50
67397;BME280;57728;50.448;18.824;2022-12-07T04:21:28;97266.88;;;2.38;78.45
67397;BME280;57728;50.448;18.824;2022-12-07T04:23:29;97265.63;;;2.34;78.53
67397;BME280;57728;50.448;18.824;2022-12-07T04:25:31;97267.25;;;2.28;78.30
67397;BME280;57728;50.448;18.824;2022-12-07T04:27:32;97273.00;;;2.25;78.50
67397;BME280;57728;50.448;18.824;2022-12-07T04:29:34;97273.00;;;2.25;78.61
67397;BME280;57728;50.448;18.824;2022-12-07T04:31:36;97272.97;;;2.18;78.53
67397;BME280;57728;50.448;18.824;2022-12-07T04:33:37;97283.50;;;2.20;78.75
67397;BME280;57728;50.448;18.824;2022-12-07T04:35:39;97272.13;;;2.18;78.69
67397;BME280;57728;50.448;18.824;2022-12-07T04:37:41;97272.13;;;2.18;78.65
67397;BME280;57728;50.448;18.824;2022-12-07T04:39:42;97272.97;;;2.18;78.66
67397;BME280;57728;50.448;18.824;2022-12-07T04:41:45;97265.69;;;2.12;78.77
67397;BME280;57728;50.448;18.824;2022-12-07T04:43:47;97285.38;;;2.19;78.67
67397;BME280;57728;50.448;18.824;2022-12-07T04:45:49;97276.47;;;2.19;78.72
67397;BME280;57728;50.448;18.824;2022-12-07T04:47:51;97272.56;;;2.21;78.74
67397;BME280;57728;50.448;18.824;2022-12-07T04:49:53;97283.09;;;2.23;78.60
67397;BME280;57728;50.448;18.824;2022-12-07T04:51:55;97272.75;;;2.20;78.58
67397;BME280;57728;50.448;18.824;2022-12-07T04:53:56;97273.78;;;2.19;78.54
67397;BME280;57728;50.448;18.824;2022-12-07T04:55:59;97264.69;;;2.20;78.51
67397;BME280;57728;50.448;18.824;2022-12-07T04:58:01;97266.38;;;2.21;78.79
67397;BME280;57728;50.448;18.824;2022-12-07T05:00:03;97271.34;;;2.24;78.79
67397;BME280;57728;50.448;18.824;2022-12-07T05:02:05;97269.69;;;2.23;78.40
67397;BME280;57728;50.448;18.824;2022-12-07T05:04:07;97274.44;;;2.21;78.55
67397;BME280;57728;50.448;18.824;2022-12-07T05:06:11;97262.22;;;2.18;78.61
67397;BME280;57728;50.448;18.824;2022-12-07T05:08:13;97273.56;;;2.20;78.83
67397;BME280;57728;50.448;18.824;2022-12-07T05:10:14;97265.09;;;2.17;78.52
67397;BME280;57728;50.448;18.824;2022-12-07T05:12:16;97273.78;;;2.19;78.58
67397;BME280;57728;50.448;18.824;2022-12-07T05:14:20;97275.00;;;2.16;78.43
67397;BME280;57728;50.448;18.824;2022-12-07T05:16:21;97271.50;;;2.16;78.75
67397;BME280;57728;50.448;18.824;2022-12-07T05:18:22;97270.47;;;2.17;78.67
67397;BME280;57728;50.448;18.824;2022-12-07T05:20:24;97269.44;;;2.18;78.65
67397;BME280;57728;50.448;18.824;2022-12-07T05:22:26;97267.19;;;2.21;78.60
67397;BME280;57728;50.448;18.824;2022-12-07T05:24:28;97268.41;;;2.19;78.72
67397;BME280;57728;50.448;18.824;2022-12-07T05:26:31;97263.03;;;2.19;78.68
67397;BME280;57728;50.448;18.824;2022-12-07T05:28:32;97267.19;;;2.21;78.76
67397;BME280;57728;50.448;18.824;2022-12-07T05:30:33;97273.22;;;2.23;78.88
67397;BME280;57728;50.448;18.824;2022-12-07T05:32:36;97276.91;;;2.22;78.67
67397;BME280;57728;50.448;18.824;2022-12-07T05:34:37;97272.56;;;2.21;78.71
67397;BME280;57728;50.448;18.824;2022-12-07T05:36:39;97262.63;;;2.15;78.69
67397;BME280;57728;50.448;18.824;2022-12-07T05:38:42;97268.00;;;2.22;78.66
67397;BME280;57728;50.448;18.824;2022-12-07T05:40:43;97271.28;;;2.17;78.73
67397;BME280;57728;50.448;18.824;2022-12-07T05:42:45;97280.00;;;2.19;78.60
67397;BME280;57728;50.448;18.824;2022-12-07T05:44:47;97282.69;;;2.19;78.67
67397;BME280;57728;50.448;18.824;2022-12-07T05:46:48;97271.88;;;2.13;78.62
67397;BME280;57728;50.448;18.824;2022-12-07T05:48:49;97280.38;;;2.16;78.72
67397;BME280;57728;50.448;18.824;2022-12-07T05:50:52;97277.69;;;2.16;78.59
67397;BME280;57728;50.448;18.824;2022-12-07T05:52:54;97286.97;;;2.14;78.54
67397;BME280;57728;50.448;18.824;2022-12-07T05:54:55;97287.19;;;2.12;78.78
67397;BME280;57728;50.448;18.824;2022-12-07T05:56:57;97283.66;;;2.12;78.60
67397;BME280;57728;50.448;18.824;2022-12-07T05:58:58;97280.34;;;2.10;78.61
67397;BME280;57728;50.448;18.824;2022-12-07T06:01:18;97274.91;;;2.03;78.76
67397;BME280;57728;50.448;18.824;2022-12-07T06:03:20;97292.28;;;2.07;78.70
67397;BME280;57728;50.448;18.824;2022-12-07T06:05:22;97280.06;;;2.04;78.90
67397;BME280;57728;50.448;18.824;2022-12-07T06:07:23;97288.59;;;2.08;78.84
67397;BME280;57728;50.448;18.824;2022-12-07T06:09:27;97294.38;;;2.12;78.99
67397;BME280;57728;50.448;18.824;2022-12-07T06:11:29;97274.91;;;2.03;78.86
67397;BME280;57728;50.448;18.824;2022-12-07T06:13:49;97288.19;;;2.11;78.84
67397;BME280;57728;50.448;18.824;2022-12-07T06:15:51;97290.28;;;2.16;78.95
67397;BME280;57728;50.448;18.824;2022-12-07T06:17:52;97292.97;;;2.16;78.86
67397;BME280;57728;50.448;18.824;2022-12-07T06:19:53;97292.34;;;2.14;78.91
67397;BME280;57728;50.448;18.824;2022-12-07T06:21:55;97300.41;;;2.14;78.73
67397;BME280;57728;50.448;18.824;2022-12-07T06:23:57;97301.63;;;2.11;78.71
67397;BME280;57728;50.448;18.824;2022-12-07T06:25:59;97298.28;;;2.09;79.00
67397;BME280;57728;50.448;18.824;2022-12-07T06:28:02;97246.63;;;1.79;78.92
67397;BME280;57728;50.448;18.824;2022-12-07T06:30:04;97306.34;;;2.09;78.92
67397;BME280;57728;50.448;18.824;2022-12-07T06:32:07;97306.72;;;2.06;78.75
67397;BME280;57728;50.448;18.824;2022-12-07T06:34:15;97296.97;;;1.98;78.79
67397;BME280;57728;50.448;18.824;2022-12-07T06:36:19;97300.75;;;2.04;79.09
67397;BME280;57728;50.448;18.824;2022-12-07T06:38:21;97307.13;;;2.03;78.98
67397;BME280;57728;50.448;18.824;2022-12-07T06:40:23;97296.19;;;2.04;79.10
67397;BME280;57728;50.448;18.824;2022-12-07T06:42:26;97293.44;;;1.98;79.08
67397;BME280;57728;50.448;18.824;2022-12-07T06:44:27;97301.56;;;2.04;79.20
67397;BME280;57728;50.448;18.824;2022-12-07T06:46:29;97300.16;;;2.09;79.21
67397;BME280;57728;50.448;18.824;2022-12-07T06:48:30;97296.66;;;2.08;79.17
67397;BME280;57728;50.448;18.824;2022-12-07T06:50:32;97306.72;;;2.06;79.04
67397;BME280;57728;50.448;18.824;2022-12-07T06:52:34;97304.25;;;2.04;78.94
67397;BME280;57728;50.448;18.824;2022-12-07T06:54:35;97305.25;;;2.03;79.21
67397;BME280;57728;50.448;18.824;2022-12-07T06:56:36;97308.78;;;2.04;79.27
67397;BME280;57728;50.448;18.824;2022-12-07T06:58:40;97309.81;;;2.03;79.03
67397;BME280;57728;50.448;18.824;2022-12-07T07:00:42;97310.63;;;2.03;79.19
67397;BME280;57728;50.448;18.824;2022-12-07T07:02:43;97314.59;;;2.08;79.42
67397;BME280;57728;50.448;18.824;2022-12-07T07:04:45;97317.09;;;2.09;79.16
67397;BME280;57728;50.448;18.824;2022-12-07T07:06:46;97315.25;;;2.10;79.16
67397;BME280;57728;50.448;18.824;2022-12-07T07:08:47;97312.38;;;2.11;79.05
67397;BME280;57728;50.448;18.824;2022-12-07T07:10:49;97320.41;;;2.11;79.12
67397;BME280;57728;50.448;18.824;2022-12-07T07:12:51;97315.88;;;2.12;79.18
67397;BME280;57728;50.448;18.824;2022-12-07T07:14:52;97311.34;;;2.12;79.22
67397;BME280;57728;50.448;18.824;2022-12-07T07:16:55;97309.41;;;2.06;79.06
67397;BME280;57728;50.448;18.824;2022-12-07T07:18:56;97319.00;;;2.15;79.24
67397;BME280;57728;50.448;18.824;2022-12-07T07:20:58;97327.25;;;2.14;79.08
67397;BME280;57728;50.448;18.824;2022-12-07T07:23:00;97323.09;;;2.11;79.25
67397;BME280;57728;50.448;18.824;2022-12-07T07:25:02;97324.94;;;2.11;79.28
67397;BME280;57728;50.448;18.824;2022-12-07T07:27:04;97316.88;;;2.11;79.19
67397;BME280;57728;50.448;18.824;2022-12-07T07:29:06;97322.91;;;2.13;79.27
67397;BME280;57728;50.448;18.824;2022-12-07T07:31:07;97298.88;;;2.04;79.16
67397;BME280;57728;50.448;18.824;2022-12-07T07:33:09;97319.00;;;2.15;79.09
67397;BME280;57728;50.448;18.824;2022-12-07T07:35:12;97306.13;;;2.11;79.20
67397;BME280;57728;50.448;18.824;2022-12-07T07:37:15;97315.28;;;2.16;78.99
67397;BME280;57728;50.448;18.824;2022-12-07T07:39:16;97315.47;;;2.15;79.07
67397;BME280;57728;50.448;18.824;2022-12-07T07:41:18;97322.09;;;2.12;79.01
67397;BME280;57728;50.448;18.824;2022-12-07T07:43:19;97317.94;;;2.10;78.99
67397;BME280;57728;50.448;18.824;2022-12-07T07:45:22;97315.88;;;2.12;79.17
67397;BME280;57728;50.448;18.824;2022-12-07T07:47:26;97327.25;;;2.14;79.40
67397;BME280;57728;50.448;18.824;2022-12-07T07:49:27;97316.31;;;2.15;79.45
67397;BME280;57728;50.448;18.824;2022-12-07T07:51:28;97327.50;;;2.19;79.39
67397;BME280;57728;50.448;18.824;2022-12-07T07:53:30;97324.41;;;2.22;79.41
67397;BME280;57728;50.448;18.824;2022-12-07T07:55:31;97313.09;;;2.27;79.38
67397;BME280;57728;50.448;18.824;2022-12-07T07:57:33;97329.84;;;2.29;79.05
67397;BME280;57728;50.448;18.824;2022-12-07T07:59:34;97326.13;;;2.30;79.08
67397;BME280;57728;50.448;18.824;2022-12-07T08:01:36;97322.84;;;2.34;79.25
67397;BME280;57728;50.448;18.824;2022-12-07T08:03:37;97333.19;;;2.37;79.12
67397;BME280;57728;50.448;18.824;2022-12-07T08:05:39;97324.53;;;2.35;78.88
67397;BME280;57728;50.448;18.824;2022-12-07T08:07:41;97323.50;;;2.36;79.03
67397;BME280;57728;50.448;18.824;2022-12-07T08:09:42;97333.44;;;2.43;79.14
67397;BME280;57728;50.448;18.824;2022-12-07T08:11:44;97329.94;;;2.42;78.68
67397;BME280;57728;50.448;18.824;2022-12-07T08:13:46;97338.63;;;2.44;78.72
67397;BME280;57728;50.448;18.824;2022-12-07T08:15:47;97340.09;;;2.47;78.83
67397;BME280;57728;50.448;18.824;2022-12-07T08:17:50;97334.72;;;2.47;78.51
67397;BME280;57728;50.448;18.824;2022-12-07T08:19:51;97341.97;;;2.46;78.55
67397;BME280;57728;50.448;18.824;2022-12-07T08:21:52;97343.81;;;2.46;78.72
67397;BME280;57728;50.448;18.824;2022-12-07T08:23:54;97341.13;;;2.46;78.42
67397;BME280;57728;50.448;18.824;2022-12-07T08:26:06;97327.22;;;2.35;78.56
67397;BME280;57728;50.448;18.824;2022-12-07T08:28:09;97345.47;;;2.47;78.49
67397;BME280;57728;50.448;18.824;2022-12-07T08:30:12;97349.19;;;2.46;78.60
67397;BME280;57728;50.448;18.824;2022-12-07T08:32:13;97345.47;;;2.47;78.60
67397;BME280;57728;50.448;18.824;2022-12-07T08:34:14;97342.38;;;2.50;78.59
67397;BME280;57728;50.448;18.824;2022-12-07T08:36:17;97331.97;;;2.40;78.68
67397;BME280;57728;50.448;18.824;2022-12-07T08:38:18;97354.00;;;2.57;78.40
67397;BME280;57728;50.448;18.824;2022-12-07T08:40:20;97363.75;;;2.58;78.30
67397;BME280;57728;50.448;18.824;2022-12-07T08:42:22;97351.31;;;2.57;78.23
67397;BME280;57728;50.448;18.824;2022-12-07T08:44:28;97356.94;;;2.62;78.48
67397;BME280;57728;50.448;18.824;2022-12-07T08:46:54;97332.28;;;2.52;78.45
67397;BME280;57728;50.448;18.824;2022-12-07T08:49:08;97358.84;;;2.68;78.18
67397;BME280;57728;50.448;18.824;2022-12-07T08:51:14;97357.19;;;2.67;77.90
67397;BME280;57728;50.448;18.824;2022-12-07T08:53:16;97368.31;;;2.64;77.96
67397;BME280;57728;50.448;18.824;2022-12-07T08:55:18;97357.91;;;2.54;77.86
67397;BME280;57728;50.448;18.824;2022-12-07T08:57:20;97362.06;;;2.57;77.98
67397;BME280;57728;50.448;18.824;2022-12-07T08:59:23;97366.81;;;2.55;78.01
67397;BME280;57728;50.448;18.824;2022-12-07T09:01:25;97362.88;;;2.51;78.17
67397;BME280;57728;50.448;18.824;2022-12-07T09:03:26;97366.56;;;2.50;78.09
67397;BME280;57728;50.448;18.824;2022-12-07T09:05:28;97366.56;;;2.50;78.19
67397;BME280;57728;50.448;18.824;2022-12-07T09:07:32;97360.56;;;2.48;78.26
67397;BME280;57728;50.448;18.824;2022-12-07T09:09:35;97352.72;;;2.46;78.46
67397;BME280;57728;50.448;18.824;2022-12-07T09:11:36;97352.91;;;2.45;78.57
67397;BME280;57728;50.448;18.824;2022-12-07T09:13:38;97351.47;;;2.49;78.77
67397;BME280;57728;50.448;18.824;2022-12-07T09:15:39;97348.78;;;2.49;78.64
67397;BME280;57728;50.448;18.824;2022-12-07T09:17:40;97330.63;;;2.51;78.81
67397;BME280;57728;50.448;18.824;2022-12-07T09:19:42;97335.59;;;2.54;78.62
67397;BME280;57728;50.448;18.824;2022-12-07T09:21:43;97332.97;;;2.61;78.90
67397;BME280;57728;50.448;18.824;2022-12-07T09:23:45;97333.38;;;2.64;78.79
67397;BME280;57728;50.448;18.824;2022-12-07T09:25:47;97325.75;;;2.68;78.63
67397;BME280;57728;50.448;18.824;2022-12-07T09:27:48;97331.38;;;2.73;78.48
67397;BME280;57728;50.448;18.824;2022-12-07T09:29:57;97319.38;;;2.75;78.75
67397;BME280;57728;50.448;18.824;2022-12-07T09:31:59;97323.59;;;2.85;78.65
67397;BME280;57728;50.448;18.824;2022-12-07T09:34:00;97313.84;;;2.84;78.48
67397;BME280;57728;50.448;18.824;2022-12-07T09:36:03;97323.84;;;2.90;78.39
67397;BME280;57728;50.448;18.824;2022-12-07T09:38:06;97316.19;;;2.93;78.33
67397;BME280;57728;50.448;18.824;2022-12-07T09:40:07;97310.41;;;2.97;78.30
67397;BME280;57728;50.448;18.824;2022-12-07T09:42:25;97305.66;;;2.99;77.95
67397;BME280;57728;50.448;18.824;2022-12-07T09:44:45;97316.63;;;2.97;77.78
67397;BME280;57728;50.448;18.824;2022-12-07T09:46:46;97313.09;;;2.97;77.69
67397;BME280;57728;50.448;18.824;2022-12-07T09:48:50;97309.13;;;2.92;77.70
67397;BME280;57728;50.448;18.824;2022-12-07T09:50:57;97309.97;;;2.93;77.90
67397;BME280;57728;50.448;18.824;2022-12-07T09:53:14;97301.91;;;2.93;77.68
67397;BME280;57728;50.448;18.824;2022-12-07T09:55:28;97297.16;;;2.95;77.84
67397;BME280;57728;50.448;18.824;2022-12-07T09:57:33;97298.63;;;2.98;77.83
67397;BME280;57728;50.448;18.824;2022-12-07T09:59:38;97291.81;;;3.02;77.75
67397;BME280;57728;50.448;18.824;2022-12-07T10:01:41;97278.31;;;2.95;77.58
67397;BME280;57728;50.448;18.824;2022-12-07T10:04:18;97282.50;;;3.04;77.68
67397;BME280;57728;50.448;18.824;2022-12-07T10:06:27;97290.38;;;3.06;77.40
67397;BME280;57728;50.448;18.824;2022-12-07T10:08:29;97279.63;;;3.06;77.50
67397;BME280;57728;50.448;18.824;2022-12-07T10:10:33;97283.13;;;3.06;77.40
67397;BME280;57728;50.448;18.824;2022-12-07T10:15:04;97254.97;;;3.02;77.46
67397;BME280;57728;50.448;18.824;2022-12-07T10:19:33;97265.19;;;3.20;77.35
67397;BME280;57728;50.448;18.824;2022-12-07T10:21:36;97260.44;;;3.22;77.07
67397;BME280;57728;50.448;18.824;2022-12-07T10:28:35;97239.09;;;3.21;77.02
67397;BME280;57728;50.448;18.824;2022-12-07T10:32:48;97252.16;;;3.24;76.68
67397;BME280;57728;50.448;18.824;2022-12-07T10:34:50;97242.44;;;3.23;76.65
67397;BME280;57728;50.448;18.824;2022-12-07T10:37:16;97245.72;;;3.25;76.95
67397;BME280;57728;50.448;18.824;2022-12-07T10:39:22;97252.78;;;3.26;76.46
67397;BME280;57728;50.448;18.824;2022-12-07T10:41:25;97257.53;;;3.24;76.37
67397;BME280;57728;50.448;18.824;2022-12-07T10:43:27;97253.81;;;3.25;76.45
67397;BME280;57728;50.448;18.824;2022-12-07T10:45:28;97243.47;;;3.22;76.48
67397;BME280;57728;50.448;18.824;2022-12-07T10:47:36;97247.00;;;3.22;76.46
67397;BME280;57728;50.448;18.824;2022-12-07T11:00:04;97251.13;;;3.25;76.44
67397;BME280;57728;50.448;18.824;2022-12-07T11:14:58;97238.34;;;3.47;76.40
67397;BME280;57728;50.448;18.824;2022-12-07T11:25:32;97226.34;;;3.76;75.92
67397;BME280;57728;50.448;18.824;2022-12-07T11:28:15;97216.81;;;3.81;75.63
67397;BME280;57728;50.448;18.824;2022-12-07T11:37:47;97205.22;;;6.99;72.33
67397;BME280;57728;50.448;18.824;2022-12-07T11:39:55;97197.91;;;7.72;71.60
67397;BME280;57728;50.448;18.824;2022-12-07T11:42:41;97194.91;;;8.52;69.39
67397;BME280;57728;50.448;18.824;2022-12-07T11:44:55;97200.38;;;9.21;67.68
67397;BME280;57728;50.448;18.824;2022-12-07T11:47:10;97198.63;;;9.61;65.23
67397;BME280;57728;50.448;18.824;2022-12-07T11:49:43;97193.41;;;9.88;64.29
67397;BME280;57728;50.448;18.824;2022-12-07T11:52:02;97197.69;;;10.18;63.80
67397;BME280;57728;50.448;18.824;2022-12-07T11:54:22;97200.72;;;10.39;61.19
67397;BME280;57728;50.448;18.824;2022-12-07T11:56:30;97198.50;;;10.36;60.81
67397;BME280;57728;50.448;18.824;2022-12-07T12:03:34;97197.94;;;9.08;60.72
67397;BME280;57728;50.448;18.824;2022-12-07T12:05:44;97211.06;;;8.99;60.94
67397;BME280;57728;50.448;18.824;2022-12-07T12:08:13;97209.59;;;8.68;59.87
67397;BME280;57728;50.448;18.824;2022-12-07T12:10:25;97211.75;;;8.30;60.73
67397;BME280;57728;50.448;18.824;2022-12-07T12:25:27;97190.13;;;5.92;64.05
67397;BME280;57728;50.448;18.824;2022-12-07T12:27:35;97188.03;;;5.69;64.64
67397;BME280;57728;50.448;18.824;2022-12-07T12:29:42;97192.84;;;5.67;65.88
67397;BME280;57728;50.448;18.824;2022-12-07T12:32:12;97182.84;;;5.67;65.09
67397;BME280;57728;50.448;18.824;2022-12-07T12:34:57;97175.06;;;5.53;65.46
67397;BME280;57728;50.448;18.824;2022-12-07T12:36:59;97176.84;;;5.40;65.81
67397;BME280;57728;50.448;18.824;2022-12-07T12:39:17;97189.38;;;5.28;66.53
67397;BME280;57728;50.448;18.824;2022-12-07T12:43:48;97170.84;;;5.06;67.02
67397;BME280;57728;50.448;18.824;2022-12-07T12:48:37;97169.28;;;4.85;67.75
67397;BME280;57728;50.448;18.824;2022-12-07T12:50:39;97161.88;;;4.74;68.03
67397;BME280;57728;50.448;18.824;2022-12-07T12:55:01;97174.97;;;4.63;68.45
67397;BME280;57728;50.448;18.824;2022-12-07T12:57:31;97175.22;;;4.55;69.02
67397;BME280;57728;50.448;18.824;2022-12-07T12:59:42;97171.50;;;4.50;69.25
67397;BME280;57728;50.448;18.824;2022-12-07T13:04:51;97160.34;;;4.39;69.75